West Bergholt, United Kingdom
Current Conditions -  °F | °C
As of 3:50 PM on Thursday 23 Oct 2014 (Local Time) from EGUW Reporting Station
Scattered Clouds Scattered Clouds  
Wind Chill: 61°   Ceiling: Unl
Heat Index: 61°   Visibility: 6mi
Dew Point: 50°   Wind: 14mph
Humidity: 68%   Direction: 210°SSW
Pressure: 30.03"   Gusts: NA
Location:  51.91°N, 0.85°E
Report Text: EGUW 231450Z 21012KT 9999 FEW024 SCT035 16/10 Q1017 BLU BECMG BKN020 WHT
Loading
Personal Weather Stations






























Interactive Weather Map
Tropical Storm Tracking
New forecast layout! Learn more

10-Day Weather Forecast

Advertisements
Track Severe Weather on mobile